Station Historical Data
Daily Summary for June 14, 2012 Units:  Both    English   Metric
« Previous Day
Next Day »
Daily Weekly Monthly Yearly Custom
  High: Low: Average:
Temperature: 91.3 °F /  32.9 °C 64.1 °F /  17.8 °C 76.6 °F /  24.8 °C
Dew Point: 69.4 °F /  20.8 °C 56.4 °F /  13.6 °C 61.9 °F /  16.6 °C
Humidity: 80% 36% 62%
Wind Speed: 8.0mph /  12.9km/h - 1.7mph /  2.7km/h
Wind Gust: 10.0mph /  16.1km/h - -
Wind- - ESE
Pressure: 29.99 in /  1015.5 hPa 29.92 in /  1013.1 hPa -
Precipitation: 0.00 in /  0 mm    
Historical Graphs
 
 
Tabular Data for June 14, 2012
Time Temperature Dew Point Pressure Wind Wind Speed Wind Gust Humidity Rainfall Rate (Hourly) Conditions
00:00 68.8 °F /  20.4 °C 58.2 °F /  14.6 °C 29.94in /  1013.8hPa NNW 1.0mph /  1.6km/h 2.0mph /  3.2km/h 69% 0.00in /  0mm
00:05 68.7 °F /  20.4 °C 58.1 °F /  14.5 °C 29.94in /  1013.8hPa North 1.0mph /  1.6km/h 2.0mph /  3.2km/h 69% 0.00in /  0mm
00:10 68.4 °F /  20.2 °C 58.2 °F /  14.6 °C 29.94in /  1013.8hPa North 2.0mph /  3.2km/h 2.0mph /  3.2km/h 70% 0.00in /  0mm
00:16 68.3 °F /  20.2 °C 58.2 °F /  14.6 °C 29.94in /  1013.8hPa North 1.0mph /  1.6km/h 2.0mph /  3.2km/h 70% 0.00in /  0mm
00:20 68.1 °F /  20.1 °C 58.0 °F /  14.4 °C 29.95in /  1014.1hPa NNW 1.0mph /  1.6km/h 3.0mph /  4.8km/h 70% 0.00in /  0mm
00:26 68.1 °F /  20.1 °C 58.3 °F /  14.6 °C 29.95in /  1014.1hPa North 1.0mph /  1.6km/h 2.0mph /  3.2km/h 71% 0.00in /  0mm
00:31 67.9 °F /  19.9 °C 58.2 °F /  14.6 °C 29.95in /  1014.1hPa North 1.0mph /  1.6km/h 2.0mph /  3.2km/h 71% 0.00in /  0mm
00:36 67.7 °F /  19.8 °C 58.0 °F /  14.4 °C 29.95in /  1014.1hPa North 1.0mph /  1.6km/h 1.0mph /  1.6km/h 71% 0.00in /  0mm
00:41 67.6 °F /  19.8 °C 57.9 °F /  14.4 °C 29.95in /  1014.1hPa North 1.0mph /  1.6km/h 2.0mph /  3.2km/h 71% 0.00in /  0mm
00:46 67.8 °F /  19.9 °C 57.7 °F /  14.3 °C 29.95in /  1014.1hPa North 2.0mph /  3.2km/h 2.0mph /  3.2km/h 70% 0.00in /  0mm
00:51 67.9 °F /  19.9 °C 57.8 °F /  14.3 °C 29.95in /  1014.1hPa NNE 2.0mph /  3.2km/h 3.0mph /  4.8km/h 70% 0.00in /  0mm
00:56 67.9 °F /  19.9 °C 57.8 °F /  14.3 °C 29.95in /  1014.1hPa North 1.0mph /  1.6km/h 1.0mph /  1.6km/h 70% 0.00in /  0mm
01:01 67.7 °F /  19.8 °C 57.6 °F /  14.2 °C 29.95in /  1014.1hPa NNW 1.0mph /  1.6km/h 2.0mph /  3.2km/h 70% 0.00in /  0mm
01:06 67.7 °F /  19.8 °C 57.6 °F /  14.2 °C 29.95in /  1014.1hPa North 1.0mph /  1.6km/h 2.0mph /  3.2km/h 70% 0.00in /  0mm
01:11 67.6 °F /  19.8 °C 57.5 °F /  14.2 °C 29.95in /  1014.1hPa Calm   2.0mph /  3.2km/h 70% 0.00in /  0mm
01:16 67.5 °F /  19.7 °C 57.8 °F /  14.3 °C 29.95in /  1014.1hPa Calm   2.0mph /  3.2km/h 71% 0.00in /  0mm
01:21 67.4 °F /  19.7 °C 57.3 °F /  14.1 °C 29.95in /  1014.1hPa NNE 1.0mph /  1.6km/h 2.0mph /  3.2km/h 70% 0.00in /  0mm
01:26 67.3 °F /  19.6 °C 57.2 °F /  14 °C 29.94in /  1013.8hPa NNE 1.0mph /  1.6km/h 2.0mph /  3.2km/h 70% 0.00in /  0mm
01:31 67.4 °F /  19.7 °C 57.3 °F /  14.1 °C 29.94in /  1013.8hPa NNE 1.0mph /  1.6km/h 3.0mph /  4.8km/h 70% 0.00in /  0mm
01:36 67.5 °F /  19.7 °C 57.4 °F /  14.1 °C 29.94in /  1013.8hPa NNE 2.0mph /  3.2km/h 3.0mph /  4.8km/h 70% 0.00in /  0mm
01:41 67.6 °F /  19.8 °C 57.1 °F /  13.9 °C 29.94in /  1013.8hPa NNE 2.0mph /  3.2km/h 4.0mph /  6.4km/h 69% 0.00in /  0mm
01:46 67.7 °F /  19.8 °C 57.2 °F /  14 °C 29.94in /  1013.8hPa NNE 2.0mph /  3.2km/h 3.0mph /  4.8km/h 69% 0.00in /  0mm
01:51 67.7 °F /  19.8 °C 57.2 °F /  14 °C 29.94in /  1013.8hPa NNE 2.0mph /  3.2km/h 4.0mph /  6.4km/h 69% 0.00in /  0mm
01:56 67.7 °F /  19.8 °C 57.2 °F /  14 °C 29.94in /  1013.8hPa North 3.0mph /  4.8km/h 4.0mph /  6.4km/h 69% 0.00in /  0mm
02:01 67.7 °F /  19.8 °C 57.2 °F /  14 °C 29.94in /  1013.8hPa NNE 2.0mph /  3.2km/h 3.0mph /  4.8km/h 69% 0.00in /  0mm
02:06 67.7 °F /  19.8 °C 57.2 °F /  14 °C 29.94in /  1013.8hPa NNE 3.0mph /  4.8km/h 4.0mph /  6.4km/h 69% 0.00in /  0mm
02:11 67.6 °F /  19.8 °C 57.1 °F /  13.9 °C 29.94in /  1013.8hPa NNE 2.0mph /  3.2km/h 2.0mph /  3.2km/h 69% 0.00in /  0mm
02:16 67.5 °F /  19.7 °C 57.0 °F /  13.9 °C 29.93in /  1013.4hPa NNE 2.0mph /  3.2km/h 2.0mph /  3.2km/h 69% 0.00in /  0mm
02:21 67.3 °F /  19.6 °C 56.8 °F /  13.8 °C 29.93in /  1013.4hPa NW 2.0mph /  3.2km/h 3.0mph /  4.8km/h 69% 0.00in /  0mm
02:26 67.2 °F /  19.6 °C 56.7 °F /  13.7 °C 29.93in /  1013.4hPa NNE 2.0mph /  3.2km/h 2.0mph /  3.2km/h 69% 0.00in /  0mm
02:31 66.9 °F /  19.4 °C 56.8 °F /  13.8 °C 29.93in /  1013.4hPa NNE 2.0mph /  3.2km/h 3.0mph /  4.8km/h 70% 0.00in /  0mm
02:36 66.9 °F /  19.4 °C 56.8 °F /  13.8 °C 29.93in /  1013.4hPa NNE 2.0mph /  3.2km/h 4.0mph /  6.4km/h 70% 0.00in /  0mm
02:41 66.9 °F /  19.4 °C 56.8 °F /  13.8 °C 29.93in /  1013.4hPa NNE 2.0mph /  3.2km/h 4.0mph /  6.4km/h 70% 0.00in /  0mm
02:46 66.8 °F /  19.3 °C 56.7 °F /  13.7 °C 29.93in /  1013.4hPa North 2.0mph /  3.2km/h 3.0mph /  4.8km/h 70% 0.00in /  0mm
02:51 66.7 °F /  19.3 °C 56.6 °F /  13.7 °C 29.92in /  1013.1hPa NNE 2.0mph /  3.2km/h 3.0mph /  4.8km/h 70% 0.00in /  0mm
02:56 66.8 °F /  19.3 °C 56.7 °F /  13.7 °C 29.93in /  1013.4hPa North 2.0mph /  3.2km/h 4.0mph /  6.4km/h 70% 0.00in /  0mm
03:01 66.7 °F /  19.3 °C 56.6 °F /  13.7 °C 29.93in /  1013.4hPa NNE 2.0mph /  3.2km/h 3.0mph /  4.8km/h 70% 0.00in /  0mm
03:06 66.6 °F /  19.2 °C 56.9 °F /  13.8 °C 29.92in /  1013.1hPa NNW 1.0mph /  1.6km/h 3.0mph /  4.8km/h 71% 0.00in /  0mm
03:11 66.4 °F /  19.1 °C 56.7 °F /  13.7 °C 29.92in /  1013.1hPa NNE 1.0mph /  1.6km/h 4.0mph /  6.4km/h 71% 0.00in /  0mm
03:16 66.2 °F /  19 °C 56.5 °F /  13.6 °C 29.92in /  1013.1hPa Calm   3.0mph /  4.8km/h 71% 0.00in /  0mm
03:21 66.0 °F /  18.9 °C 56.7 °F /  13.7 °C 29.92in /  1013.1hPa North 2.0mph /  3.2km/h 3.0mph /  4.8km/h 72% 0.00in /  0mm
03:26 65.8 °F /  18.8 °C 56.5 °F /  13.6 °C 29.92in /  1013.1hPa North 1.0mph /  1.6km/h 2.0mph /  3.2km/h 72% 0.00in /  0mm
03:31 65.6 °F /  18.7 °C 56.7 °F /  13.7 °C 29.92in /  1013.1hPa NNE 1.0mph /  1.6km/h 2.0mph /  3.2km/h 73% 0.00in /  0mm
03:36 65.6 °F /  18.7 °C 56.7 °F /  13.7 °C 29.92in /  1013.1hPa NNE 1.0mph /  1.6km/h 2.0mph /  3.2km/h 73% 0.00in /  0mm
03:41 65.5 °F /  18.6 °C 56.6 °F /  13.7 °C 29.92in /  1013.1hPa NNE 1.0mph /  1.6km/h 1.0mph /  1.6km/h 73% 0.00in /  0mm
03:47 65.4 °F /  18.6 °C 56.5 °F /  13.6 °C 29.92in /  1013.1hPa NNE 1.0mph /  1.6km/h 2.0mph /  3.2km/h 73% 0.00in /  0mm
03:52 65.4 °F /  18.6 °C 56.5 °F /  13.6 °C 29.93in /  1013.4hPa NNE 1.0mph /  1.6km/h 2.0mph /  3.2km/h 73% 0.00in /  0mm
03:57 65.4 °F /  18.6 °C 56.5 °F /  13.6 °C 29.93in /  1013.4hPa NE 1.0mph /  1.6km/h 2.0mph /  3.2km/h 73% 0.00in /  0mm
04:02 65.4 °F /  18.6 °C 56.5 °F /  13.6 °C 29.92in /  1013.1hPa NNE 2.0mph /  3.2km/h 3.0mph /  4.8km/h 73% 0.00in /  0mm
04:07 65.5 °F /  18.6 °C 56.6 °F /  13.7 °C 29.92in /  1013.1hPa North 2.0mph /  3.2km/h 2.0mph /  3.2km/h 73% 0.00in /  0mm
04:12 65.3 °F /  18.5 °C 56.4 °F /  13.6 °C 29.92in /  1013.1hPa NNE 1.0mph /  1.6km/h 2.0mph /  3.2km/h 73% 0.00in /  0mm
04:17 65.2 °F /  18.4 °C 56.7 °F /  13.7 °C 29.92in /  1013.1hPa NE 1.0mph /  1.6km/h 3.0mph /  4.8km/h 74% 0.00in /  0mm
04:22 65.2 °F /  18.4 °C 56.7 °F /  13.7 °C 29.92in /  1013.1hPa NNE 1.0mph /  1.6km/h 3.0mph /  4.8km/h 74% 0.00in /  0mm
04:27 65.1 °F /  18.4 °C 56.6 °F /  13.7 °C 29.92in /  1013.1hPa NNE 2.0mph /  3.2km/h 3.0mph /  4.8km/h 74% 0.00in /  0mm
04:32 65.1 °F /  18.4 °C 56.6 °F /  13.7 °C 29.92in /  1013.1hPa NNE 1.0mph /  1.6km/h 4.0mph /  6.4km/h 74% 0.00in /  0mm
04:37 65.0 °F /  18.3 °C 56.5 °F /  13.6 °C 29.93in /  1013.4hPa North 1.0mph /  1.6km/h 2.0mph /  3.2km/h 74% 0.00in /  0mm
04:42 65.0 °F /  18.3 °C 56.5 °F /  13.6 °C 29.93in /  1013.4hPa North 1.0mph /  1.6km/h 2.0mph /  3.2km/h 74% 0.00in /  0mm
04:47 65.1 °F /  18.4 °C 56.6 °F /  13.7 °C 29.93in /  1013.4hPa NNE 2.0mph /  3.2km/h 3.0mph /  4.8km/h 74% 0.00in /  0mm
04:52 65.0 °F /  18.3 °C 56.5 °F /  13.6 °C 29.93in /  1013.4hPa NNE 2.0mph /  3.2km/h 3.0mph /  4.8km/h 74% 0.00in /  0mm
04:57 65.0 °F /  18.3 °C 56.5 °F /  13.6 °C 29.93in /  1013.4hPa NNE 1.0mph /  1.6km/h 3.0mph /  4.8km/h 74% 0.00in /  0mm
05:02 65.1 °F /  18.4 °C 56.6 °F /  13.7 °C 29.93in /  1013.4hPa Calm   2.0mph /  3.2km/h 74% 0.00in /  0mm
05:07 65.0 °F /  18.3 °C 56.5 °F /  13.6 °C 29.93in /  1013.4hPa NNE 1.0mph /  1.6km/h 2.0mph /  3.2km/h 74% 0.00in /  0mm
05:12 65.0 °F /  18.3 °C 56.5 °F /  13.6 °C 29.93in /  1013.4hPa North 1.0mph /  1.6km/h 2.0mph /  3.2km/h 74% 0.00in /  0mm
05:17 64.9 °F /  18.3 °C 56.8 °F /  13.8 °C 29.93in /  1013.4hPa NNE 1.0mph /  1.6km/h 2.0mph /  3.2km/h 75% 0.00in /  0mm
05:22 64.7 °F /  18.2 °C 56.6 °F /  13.7 °C 29.93in /  1013.4hPa NNE 1.0mph /  1.6km/h 2.0mph /  3.2km/h 75% 0.00in /  0mm
05:27 64.7 °F /  18.2 °C 56.6 °F /  13.7 °C 29.94in /  1013.8hPa NNE 2.0mph /  3.2km/h 3.0mph /  4.8km/h 75% 0.00in /  0mm
05:32 64.7 °F /  18.2 °C 56.6 °F /  13.7 °C 29.94in /  1013.8hPa NNE 2.0mph /  3.2km/h 3.0mph /  4.8km/h 75% 0.00in /  0mm
05:37 64.7 °F /  18.2 °C 56.6 °F /  13.7 °C 29.93in /  1013.4hPa NE 2.0mph /  3.2km/h 3.0mph /  4.8km/h 75% 0.00in /  0mm
05:42 64.6 °F /  18.1 °C 56.5 °F /  13.6 °C 29.94in /  1013.8hPa North 1.0mph /  1.6km/h 3.0mph /  4.8km/h 75% 0.00in /  0mm
05:47 64.5 °F /  18.1 °C 56.8 °F /  13.8 °C 29.94in /  1013.8hPa NE 2.0mph /  3.2km/h 3.0mph /  4.8km/h 76% 0.00in /  0mm
05:52 64.3 °F /  17.9 °C 56.6 °F /  13.7 °C 29.94in /  1013.8hPa North 4.0mph /  6.4km/h 4.0mph /  6.4km/h 76% 0.00in /  0mm
05:58 64.3 °F /  17.9 °C 56.6 °F /  13.7 °C 29.94in /  1013.8hPa North 2.0mph /  3.2km/h 4.0mph /  6.4km/h 76% 0.00in /  0mm
06:03 64.4 °F /  18 °C 56.7 °F /  13.7 °C 29.94in /  1013.8hPa NE 3.0mph /  4.8km/h 4.0mph /  6.4km/h 76% 0.00in /  0mm
06:08 64.4 °F /  18 °C 56.7 °F /  13.7 °C 29.94in /  1013.8hPa NNE 2.0mph /  3.2km/h 4.0mph /  6.4km/h 76% 0.00in /  0mm
06:13 64.5 °F /  18.1 °C 56.8 °F /  13.8 °C 29.94in /  1013.8hPa NE 4.0mph /  6.4km/h 4.0mph /  6.4km/h 76% 0.00in /  0mm
06:18 64.6 °F /  18.1 °C 56.9 °F /  13.8 °C 29.94in /  1013.8hPa NE 2.0mph /  3.2km/h 3.0mph /  4.8km/h 76% 0.00in /  0mm
06:23 64.5 °F /  18.1 °C 56.8 °F /  13.8 °C 29.94in /  1013.8hPa North 4.0mph /  6.4km/h 4.0mph /  6.4km/h 76% 0.00in /  0mm
06:28 64.5 °F /  18.1 °C 56.8 °F /  13.8 °C 29.94in /  1013.8hPa NNE 3.0mph /  4.8km/h 3.0mph /  4.8km/h 76% 0.00in /  0mm
06:33 64.3 °F /  17.9 °C 56.6 °F /  13.7 °C 29.94in /  1013.8hPa NE 1.0mph /  1.6km/h 4.0mph /  6.4km/h 76% 0.00in /  0mm
06:38 64.2 °F /  17.9 °C 56.8 °F /  13.8 °C 29.95in /  1014.1hPa Calm   1.0mph /  1.6km/h 77% 0.00in /  0mm
06:43 64.1 °F /  17.8 °C 56.8 °F /  13.8 °C 29.95in /  1014.1hPa NNE 1.0mph /  1.6km/h 3.0mph /  4.8km/h 77% 0.00in /  0mm
06:48 64.2 °F /  17.9 °C 56.8 °F /  13.8 °C 29.95in /  1014.1hPa NE 1.0mph /  1.6km/h 1.0mph /  1.6km/h 77% 0.00in /  0mm
06:53 64.1 °F /  17.8 °C 56.8 °F /  13.8 °C 29.95in /  1014.1hPa NE 1.0mph /  1.6km/h 2.0mph /  3.2km/h 77% 0.00in /  0mm
06:58 64.1 °F /  17.8 °C 56.8 °F /  13.8 °C 29.96in /  1014.4hPa NE 2.0mph /  3.2km/h 2.0mph /  3.2km/h 77% 0.00in /  0mm
07:03 64.1 °F /  17.8 °C 56.8 °F /  13.8 °C 29.96in /  1014.4hPa North 2.0mph /  3.2km/h 3.0mph /  4.8km/h 77% 0.00in /  0mm
07:08 64.1 °F /  17.8 °C 56.8 °F /  13.8 °C 29.96in /  1014.4hPa North 2.0mph /  3.2km/h 3.0mph /  4.8km/h 77% 0.00in /  0mm
07:13 64.2 °F /  17.9 °C 56.8 °F /  13.8 °C 29.96in /  1014.4hPa NNE 2.0mph /  3.2km/h 4.0mph /  6.4km/h 77% 0.00in /  0mm
07:18 64.3 °F /  17.9 °C 57.0 °F /  13.9 °C 29.96in /  1014.4hPa NNE 1.0mph /  1.6km/h 2.0mph /  3.2km/h 77% 0.00in /  0mm
07:23 64.5 °F /  18.1 °C 57.1 °F /  13.9 °C 29.97in /  1014.8hPa NNE 1.0mph /  1.6km/h 3.0mph /  4.8km/h 77% 0.00in /  0mm
07:28 64.6 °F /  18.1 °C 57.2 °F /  14 °C 29.97in /  1014.8hPa NNE 3.0mph /  4.8km/h 3.0mph /  4.8km/h 77% 0.00in /  0mm
07:33 65.2 °F /  18.4 °C 57.8 °F /  14.3 °C 29.97in /  1014.8hPa North 2.0mph /  3.2km/h 4.0mph /  6.4km/h 77% 0.00in /  0mm
07:38 65.9 °F /  18.8 °C 57.8 °F /  14.3 °C 29.97in /  1014.8hPa North 1.0mph /  1.6km/h 3.0mph /  4.8km/h 75% 0.00in /  0mm
07:43 66.6 °F /  19.2 °C 58.1 °F /  14.5 °C 29.98in /  1015.1hPa NE 3.0mph /  4.8km/h 3.0mph /  4.8km/h 74% 0.00in /  0mm
07:48 67.1 °F /  19.5 °C 58.5 °F /  14.7 °C 29.98in /  1015.1hPa NE 2.0mph /  3.2km/h 2.0mph /  3.2km/h 74% 0.00in /  0mm
07:53 67.5 °F /  19.7 °C 58.5 °F /  14.7 °C 29.97in /  1014.8hPa NNE 2.0mph /  3.2km/h 2.0mph /  3.2km/h 73% 0.00in /  0mm
07:58 67.9 °F /  19.9 °C 58.9 °F /  14.9 °C 29.98in /  1015.1hPa NNE 2.0mph /  3.2km/h 5.0mph /  8km/h 73% 0.00in /  0mm
08:03 68.3 °F /  20.2 °C 58.5 °F /  14.7 °C 29.98in /  1015.1hPa NNE 2.0mph /  3.2km/h 4.0mph /  6.4km/h 71% 0.00in /  0mm
08:08 68.5 °F /  20.3 °C 59.1 °F /  15.1 °C 29.98in /  1015.1hPa NE 3.0mph /  4.8km/h 4.0mph /  6.4km/h 72% 0.00in /  0mm
08:13 68.7 °F /  20.4 °C 59.3 °F /  15.2 °C 29.98in /  1015.1hPa NE 2.0mph /  3.2km/h 4.0mph /  6.4km/h 72% 0.00in /  0mm
08:18 69.0 °F /  20.6 °C 59.2 °F /  15.1 °C 29.98in /  1015.1hPa NE 4.0mph /  6.4km/h 5.0mph /  8km/h 71% 0.00in /  0mm
08:23 69.2 °F /  20.7 °C 59.8 °F /  15.4 °C 29.98in /  1015.1hPa NNE 1.0mph /  1.6km/h 5.0mph /  8km/h 72% 0.00in /  0mm
08:28 69.8 °F /  21 °C 60.4 °F /  15.8 °C 29.98in /  1015.1hPa NE 3.0mph /  4.8km/h 3.0mph /  4.8km/h 72% 0.00in /  0mm
08:33 70.1 °F /  21.2 °C 60.3 °F /  15.7 °C 29.98in /  1015.1hPa NE 4.0mph /  6.4km/h 5.0mph /  8km/h 71% 0.00in /  0mm
08:38 70.5 °F /  21.4 °C 61.0 °F /  16.1 °C 29.98in /  1015.1hPa NNE 4.0mph /  6.4km/h 4.0mph /  6.4km/h 72% 0.00in /  0mm
08:43 70.6 °F /  21.4 °C 60.3 °F /  15.7 °C 29.98in /  1015.1hPa NE 3.0mph /  4.8km/h 6.0mph /  9.7km/h 70% 0.00in /  0mm
08:48 70.9 °F /  21.6 °C 61.0 °F /  16.1 °C 29.98in /  1015.1hPa NE 3.0mph /  4.8km/h 5.0mph /  8km/h 71% 0.00in /  0mm
08:53 71.3 °F /  21.8 °C 61.0 °F /  16.1 °C 29.98in /  1015.1hPa NE 3.0mph /  4.8km/h 6.0mph /  9.7km/h 70% 0.00in /  0mm
08:58 71.7 °F /  22.1 °C 61.8 °F /  16.6 °C 29.98in /  1015.1hPa NNE 2.0mph /  3.2km/h 4.0mph /  6.4km/h 71% 0.00in /  0mm
09:03 72.3 °F /  22.4 °C 62.8 °F /  17.1 °C 29.99in /  1015.5hPa ENE 1.0mph /  1.6km/h 5.0mph /  8km/h 72% 0.00in /  0mm
09:08 73.1 °F /  22.8 °C 62.7 °F /  17.1 °C 29.99in /  1015.5hPa ENE 1.0mph /  1.6km/h 3.0mph /  4.8km/h 70% 0.00in /  0mm
09:13 73.5 °F /  23.1 °C 63.1 °F /  17.3 °C 29.99in /  1015.5hPa ENE 1.0mph /  1.6km/h 4.0mph /  6.4km/h 70% 0.00in /  0mm
09:18 74.5 °F /  23.6 °C 62.8 °F /  17.1 °C 29.99in /  1015.5hPa East 1.0mph /  1.6km/h 2.0mph /  3.2km/h 67% 0.00in /  0mm
09:23 74.7 °F /  23.7 °C 62.2 °F /  16.8 °C 29.99in /  1015.5hPa NE 3.0mph /  4.8km/h 4.0mph /  6.4km/h 65% 0.00in /  0mm
09:28 74.6 °F /  23.7 °C 62.5 °F /  16.9 °C 29.99in /  1015.5hPa NE 4.0mph /  6.4km/h 5.0mph /  8km/h 66% 0.00in /  0mm
09:33 74.9 °F /  23.8 °C 62.3 °F /  16.8 °C 29.99in /  1015.5hPa East 2.0mph /  3.2km/h 4.0mph /  6.4km/h 65% 0.00in /  0mm
09:39 75.3 °F /  24.1 °C 62.3 °F /  16.8 °C 29.99in /  1015.5hPa East 1.0mph /  1.6km/h 5.0mph /  8km/h 64% 0.00in /  0mm
09:44 75.4 °F /  24.1 °C 62.4 °F /  16.9 °C 29.99in /  1015.5hPa East 3.0mph /  4.8km/h 7.0mph /  11.3km/h 64% 0.00in /  0mm
09:49 75.5 °F /  24.2 °C 62.0 °F /  16.7 °C 29.99in /  1015.5hPa ENE 2.0mph /  3.2km/h 6.0mph /  9.7km/h 63% 0.00in /  0mm
09:54 75.9 °F /  24.4 °C 63.3 °F /  17.4 °C 29.99in /  1015.5hPa East 3.0mph /  4.8km/h 4.0mph /  6.4km/h 65% 0.00in /  0mm
09:59 76.3 °F /  24.6 °C 64.1 °F /  17.8 °C 29.99in /  1015.5hPa East 2.0mph /  3.2km/h 4.0mph /  6.4km/h 66% 0.00in /  0mm
10:04 76.8 °F /  24.9 °C 63.3 °F /  17.4 °C 29.99in /  1015.5hPa ENE 4.0mph /  6.4km/h 5.0mph /  8km/h 63% 0.00in /  0mm
10:09 76.9 °F /  24.9 °C 63.8 °F /  17.7 °C 29.99in /  1015.5hPa Calm   5.0mph /  8km/h 64% 0.00in /  0mm
10:14 77.5 °F /  25.3 °C 63.9 °F /  17.7 °C 29.99in /  1015.5hPa East 5.0mph /  8km/h 5.0mph /  8km/h 63% 0.00in /  0mm
10:19 77.5 °F /  25.3 °C 63.5 °F /  17.5 °C 29.99in /  1015.5hPa ESE 2.0mph /  3.2km/h 5.0mph /  8km/h 62% 0.00in /  0mm
10:24 77.7 °F /  25.4 °C 63.7 °F /  17.6 °C 29.99in /  1015.5hPa East 1.0mph /  1.6km/h 7.0mph /  11.3km/h 62% 0.00in /  0mm
10:29 77.8 °F /  25.4 °C 64.2 °F /  17.9 °C 29.99in /  1015.5hPa NE 4.0mph /  6.4km/h 4.0mph /  6.4km/h 63% 0.00in /  0mm
10:34 78.2 °F /  25.7 °C 65.0 °F /  18.3 °C 29.99in /  1015.5hPa NE 4.0mph /  6.4km/h 4.0mph /  6.4km/h 64% 0.00in /  0mm
10:39 78.7 °F /  25.9 °C 65.1 °F /  18.4 °C 29.99in /  1015.5hPa NE 1.0mph /  1.6km/h 5.0mph /  8km/h 63% 0.00in /  0mm
10:44 79.0 °F /  26.1 °C 66.2 °F /  19 °C 29.99in /  1015.5hPa East 5.0mph /  8km/h 5.0mph /  8km/h 65% 0.00in /  0mm
10:49 78.9 °F /  26.1 °C 64.8 °F /  18.2 °C 29.99in /  1015.5hPa SE 4.0mph /  6.4km/h 6.0mph /  9.7km/h 62% 0.00in /  0mm
10:54 79.4 °F /  26.3 °C 66.2 °F /  19 °C 29.99in /  1015.5hPa Calm   1.0mph /  1.6km/h 64% 0.00in /  0mm
10:59 79.7 °F /  26.5 °C 65.1 °F /  18.4 °C 29.99in /  1015.5hPa ESE 2.0mph /  3.2km/h 4.0mph /  6.4km/h 61% 0.00in /  0mm
11:04 80.1 °F /  26.7 °C 66.4 °F /  19.1 °C 29.99in /  1015.5hPa ESE 4.0mph /  6.4km/h 5.0mph /  8km/h 63% 0.00in /  0mm
11:09 80.7 °F /  27.1 °C 67.4 °F /  19.7 °C 29.99in /  1015.5hPa ENE 4.0mph /  6.4km/h 4.0mph /  6.4km/h 64% 0.00in /  0mm
11:14 80.8 °F /  27.1 °C 66.1 °F /  18.9 °C 29.99in /  1015.5hPa Calm   4.0mph /  6.4km/h 61% 0.00in /  0mm
11:19 81.3 °F /  27.4 °C 67.1 °F /  19.5 °C 29.99in /  1015.5hPa East 1.0mph /  1.6km/h 2.0mph /  3.2km/h 62% 0.00in /  0mm
11:24 81.6 °F /  27.6 °C 66.9 °F /  19.4 °C 29.99in /  1015.5hPa East 4.0mph /  6.4km/h 5.0mph /  8km/h 61% 0.00in /  0mm
11:29 81.6 °F /  27.6 °C 66.4 °F /  19.1 °C 29.99in /  1015.5hPa ESE 1.0mph /  1.6km/h 3.0mph /  4.8km/h 60% 0.00in /  0mm
11:34 82.3 °F /  27.9 °C 66.1 °F /  18.9 °C 29.99in /  1015.5hPa South 3.0mph /  4.8km/h 4.0mph /  6.4km/h 58% 0.00in /  0mm
11:39 83.1 °F /  28.4 °C 67.8 °F /  19.9 °C 29.99in /  1015.5hPa SW 1.0mph /  1.6km/h 2.0mph /  3.2km/h 60% 0.00in /  0mm
11:44 83.5 °F /  28.6 °C 66.2 °F /  19 °C 29.99in /  1015.5hPa Calm   4.0mph /  6.4km/h 56% 0.00in /  0mm
11:49 83.7 °F /  28.7 °C 66.3 °F /  19.1 °C 29.99in /  1015.5hPa WSW 1.0mph /  1.6km/h 3.0mph /  4.8km/h 56% 0.00in /  0mm
11:54 84.4 °F /  29.1 °C 68.0 °F /  20 °C 29.99in /  1015.5hPa Calm   1.0mph /  1.6km/h 58% 0.00in /  0mm
11:59 85.0 °F /  29.4 °C 68.6 °F /  20.3 °C 29.99in /  1015.5hPa West 1.0mph /  1.6km/h 3.0mph /  4.8km/h 58% 0.00in /  0mm
12:04 84.3 °F /  29.1 °C 67.4 °F /  19.7 °C 29.99in /  1015.5hPa Calm   4.0mph /  6.4km/h 57% 0.00in /  0mm
12:09 84.5 °F /  29.2 °C 67.1 °F /  19.5 °C 29.99in /  1015.5hPa Calm   4.0mph /  6.4km/h 56% 0.00in /  0mm
12:14 84.3 °F /  29.1 °C 65.9 °F /  18.8 °C 29.99in /  1015.5hPa East 4.0mph /  6.4km/h 4.0mph /  6.4km/h 54% 0.00in /  0mm
12:19 84.5 °F /  29.2 °C 65.5 °F /  18.6 °C 29.99in /  1015.5hPa NNE 4.0mph /  6.4km/h 4.0mph /  6.4km/h 53% 0.00in /  0mm
12:24 84.5 °F /  29.2 °C 67.1 °F /  19.5 °C 29.99in /  1015.5hPa NNW 3.0mph /  4.8km/h 3.0mph /  4.8km/h 56% 0.00in /  0mm
12:29 84.7 °F /  29.3 °C 62.9 °F /  17.2 °C 29.99in /  1015.5hPa ENE 2.0mph /  3.2km/h 7.0mph /  11.3km/h 48% 0.00in /  0mm
12:34 84.5 °F /  29.2 °C 62.7 °F /  17.1 °C 29.99in /  1015.5hPa Calm   4.0mph /  6.4km/h 48% 0.00in /  0mm
12:39 84.9 °F /  29.4 °C 63.6 °F /  17.6 °C 29.99in /  1015.5hPa SE 3.0mph /  4.8km/h 6.0mph /  9.7km/h 49% 0.00in /  0mm
12:44 84.7 °F /  29.3 °C 63.5 °F /  17.5 °C 29.99in /  1015.5hPa ESE 1.0mph /  1.6km/h 4.0mph /  6.4km/h 49% 0.00in /  0mm
12:49 84.9 °F /  29.4 °C 64.2 °F /  17.9 °C 29.99in /  1015.5hPa SW 6.0mph /  9.7km/h 6.0mph /  9.7km/h 50% 0.00in /  0mm
12:54 84.9 °F /  29.4 °C 63.0 °F /  17.2 °C 29.99in /  1015.5hPa SSE 1.0mph /  1.6km/h 4.0mph /  6.4km/h 48% 0.00in /  0mm
12:59 85.7 °F /  29.8 °C 62.6 °F /  17 °C 29.99in /  1015.5hPa NE 4.0mph /  6.4km/h 6.0mph /  9.7km/h 46% 0.00in /  0mm
13:04 85.2 °F /  29.6 °C 62.7 °F /  17.1 °C 29.99in /  1015.5hPa Calm   4.0mph /  6.4km/h 47% 0.00in /  0mm
13:09 85.3 °F /  29.6 °C 61.6 °F /  16.4 °C 29.99in /  1015.5hPa SW 4.0mph /  6.4km/h 4.0mph /  6.4km/h 45% 0.00in /  0mm
13:14 85.4 °F /  29.7 °C 61.7 °F /  16.5 °C 29.99in /  1015.5hPa East 4.0mph /  6.4km/h 6.0mph /  9.7km/h 45% 0.00in /  0mm
13:19 85.2 °F /  29.6 °C 61.5 °F /  16.4 °C 29.99in /  1015.5hPa SE 5.0mph /  8km/h 7.0mph /  11.3km/h 45% 0.00in /  0mm
13:24 85.5 °F /  29.7 °C 62.4 °F /  16.9 °C 29.98in /  1015.1hPa East 3.0mph /  4.8km/h 6.0mph /  9.7km/h 46% 0.00in /  0mm
13:29 85.7 °F /  29.8 °C 61.3 °F /  16.3 °C 29.98in /  1015.1hPa NW 4.0mph /  6.4km/h 4.0mph /  6.4km/h 44% 0.00in /  0mm
13:34 86.1 °F /  30.1 °C 62.9 °F /  17.2 °C 29.98in /  1015.1hPa East 1.0mph /  1.6km/h 2.0mph /  3.2km/h 46% 0.00in /  0mm
13:39 85.7 °F /  29.8 °C 64.4 °F /  18 °C 29.98in /  1015.1hPa NE 2.0mph /  3.2km/h 7.0mph /  11.3km/h 49% 0.00in /  0mm
13:44 85.5 °F /  29.7 °C 62.4 °F /  16.9 °C 29.98in /  1015.1hPa SSW 1.0mph /  1.6km/h 3.0mph /  4.8km/h 46% 0.00in /  0mm
13:49 86.0 °F /  30 °C 63.4 °F /  17.4 °C 29.98in /  1015.1hPa East 3.0mph /  4.8km/h 7.0mph /  11.3km/h 47% 0.00in /  0mm
13:54 85.6 °F /  29.8 °C 62.5 °F /  16.9 °C 29.98in /  1015.1hPa NE 5.0mph /  8km/h 10.0mph /  16.1km/h 46% 0.00in /  0mm
13:59 85.3 °F /  29.6 °C 64.0 °F /  17.8 °C 29.98in /  1015.1hPa NE 6.0mph /  9.7km/h 8.0mph /  12.9km/h 49% 0.00in /  0mm
14:04 85.4 °F /  29.7 °C 63.5 °F /  17.5 °C 29.98in /  1015.1hPa NE 7.0mph /  11.3km/h 7.0mph /  11.3km/h 48% 0.00in /  0mm
14:09 85.6 °F /  29.8 °C 65.4 °F /  18.6 °C 29.98in /  1015.1hPa SE 1.0mph /  1.6km/h 4.0mph /  6.4km/h 51% 0.00in /  0mm
14:14 86.0 °F /  30 °C 64.6 °F /  18.1 °C 29.98in /  1015.1hPa SSW 2.0mph /  3.2km/h 7.0mph /  11.3km/h 49% 0.00in /  0mm
14:19 86.5 °F /  30.3 °C 64.5 °F /  18.1 °C 29.97in /  1014.8hPa North 3.0mph /  4.8km/h 3.0mph /  4.8km/h 48% 0.00in /  0mm
14:25 86.4 °F /  30.2 °C 66.7 °F /  19.3 °C 29.97in /  1014.8hPa ENE 8.0mph /  12.9km/h 8.0mph /  12.9km/h 52% 0.00in /  0mm
14:30 85.6 °F /  29.8 °C 63.1 °F /  17.3 °C 29.97in /  1014.8hPa East 4.0mph /  6.4km/h 6.0mph /  9.7km/h 47% 0.00in /  0mm
14:35 84.7 °F /  29.3 °C 63.5 °F /  17.5 °C 29.97in /  1014.8hPa NNE 2.0mph /  3.2km/h 4.0mph /  6.4km/h 49% 0.00in /  0mm
14:40 84.5 °F /  29.2 °C 65.0 °F /  18.3 °C 29.97in /  1014.8hPa NNE 3.0mph /  4.8km/h 5.0mph /  8km/h 52% 0.00in /  0mm
14:45 84.4 °F /  29.1 °C 64.9 °F /  18.3 °C 29.97in /  1014.8hPa NW 2.0mph /  3.2km/h 3.0mph /  4.8km/h 52% 0.00in /  0mm
14:50 84.6 °F /  29.2 °C 65.1 °F /  18.4 °C 29.97in /  1014.8hPa NNW 4.0mph /  6.4km/h 6.0mph /  9.7km/h 52% 0.00in /  0mm
14:55 85.2 °F /  29.6 °C 63.3 °F /  17.4 °C 29.97in /  1014.8hPa Calm   7.0mph /  11.3km/h 48% 0.00in /  0mm
15:00 85.9 °F /  29.9 °C 64.5 °F /  18.1 °C 29.97in /  1014.8hPa East 3.0mph /  4.8km/h 5.0mph /  8km/h 49% 0.00in /  0mm
15:05 85.9 °F /  29.9 °C 64.0 °F /  17.8 °C 29.96in /  1014.4hPa NE 3.0mph /  4.8km/h 5.0mph /  8km/h 48% 0.00in /  0mm
15:10 85.3 °F /  29.6 °C 63.4 °F /  17.4 °C 29.96in /  1014.4hPa ENE 2.0mph /  3.2km/h 4.0mph /  6.4km/h 48% 0.00in /  0mm
15:15 85.5 °F /  29.7 °C 64.8 °F /  18.2 °C 29.96in /  1014.4hPa NE 4.0mph /  6.4km/h 6.0mph /  9.7km/h 50% 0.00in /  0mm
15:20 85.5 °F /  29.7 °C 63.0 °F /  17.2 °C 29.96in /  1014.4hPa NNE 5.0mph /  8km/h 7.0mph /  11.3km/h 47% 0.00in /  0mm
15:25 85.5 °F /  29.7 °C 63.0 °F /  17.2 °C 29.96in /  1014.4hPa East 5.0mph /  8km/h 7.0mph /  11.3km/h 47% 0.00in /  0mm
15:30 86.1 °F /  30.1 °C 62.9 °F /  17.2 °C 29.96in /  1014.4hPa SSW 1.0mph /  1.6km/h 3.0mph /  4.8km/h 46% 0.00in /  0mm
15:35 86.5 °F /  30.3 °C 63.9 °F /  17.7 °C 29.96in /  1014.4hPa North 3.0mph /  4.8km/h 4.0mph /  6.4km/h 47% 0.00in /  0mm
15:40 86.6 °F /  30.3 °C 65.8 °F /  18.8 °C 29.96in /  1014.4hPa NNE 2.0mph /  3.2km/h 3.0mph /  4.8km/h 50% 0.00in /  0mm
15:45 87.0 °F /  30.6 °C 65.0 °F /  18.3 °C 29.95in /  1014.1hPa NNW 2.0mph /  3.2km/h 2.0mph /  3.2km/h 48% 0.00in /  0mm
15:50 87.2 °F /  30.7 °C 65.7 °F /  18.7 °C 29.95in /  1014.1hPa NNW 3.0mph /  4.8km/h 5.0mph /  8km/h 49% 0.00in /  0mm
15:55 87.1 °F /  30.6 °C 64.4 °F /  18 °C 29.95in /  1014.1hPa ENE 3.0mph /  4.8km/h 6.0mph /  9.7km/h 47% 0.00in /  0mm
16:00 86.6 °F /  30.3 °C 64.0 °F /  17.8 °C 29.95in /  1014.1hPa NE 2.0mph /  3.2km/h 5.0mph /  8km/h 47% 0.00in /  0mm
16:05 86.7 °F /  30.4 °C 65.9 °F /  18.8 °C 29.95in /  1014.1hPa East 2.0mph /  3.2km/h 4.0mph /  6.4km/h 50% 0.00in /  0mm
16:10 87.0 °F /  30.6 °C 62.5 °F /  16.9 °C 29.94in /  1013.8hPa NNE 3.0mph /  4.8km/h 6.0mph /  9.7km/h 44% 0.00in /  0mm
16:15 87.2 °F /  30.7 °C 64.5 °F /  18.1 °C 29.94in /  1013.8hPa SSE 1.0mph /  1.6km/h 1.0mph /  1.6km/h 47% 0.00in /  0mm
16:20 87.8 °F /  31 °C 63.8 °F /  17.7 °C 29.94in /  1013.8hPa East 1.0mph /  1.6km/h 5.0mph /  8km/h 45% 0.00in /  0mm
16:25 87.7 °F /  30.9 °C 63.1 °F /  17.3 °C 29.94in /  1013.8hPa NNW 3.0mph /  4.8km/h 5.0mph /  8km/h 44% 0.00in /  0mm
16:30 87.8 °F /  31 °C 64.5 °F /  18.1 °C 29.94in /  1013.8hPa NNE 2.0mph /  3.2km/h 4.0mph /  6.4km/h 46% 0.00in /  0mm
16:35 87.7 °F /  30.9 °C 63.1 °F /  17.3 °C 29.94in /  1013.8hPa North 1.0mph /  1.6km/h 3.0mph /  4.8km/h 44% 0.00in /  0mm
16:40 87.6 °F /  30.9 °C 66.1 °F /  18.9 °C 29.93in /  1013.4hPa Calm   3.0mph /  4.8km/h 49% 0.00in /  0mm
16:45 87.6 °F /  30.9 °C 64.3 °F /  17.9 °C 29.93in /  1013.4hPa East 3.0mph /  4.8km/h 6.0mph /  9.7km/h 46% 0.00in /  0mm
16:50 87.7 °F /  30.9 °C 61.8 °F /  16.6 °C 29.93in /  1013.4hPa ESE 5.0mph /  8km/h 5.0mph /  8km/h 42% 0.00in /  0mm
16:55 88.1 °F /  31.2 °C 61.5 °F /  16.4 °C 29.93in /  1013.4hPa Calm   1.0mph /  1.6km/h 41% 0.00in /  0mm
17:00 88.2 °F /  31.2 °C 60.1 °F /  15.6 °C 29.93in /  1013.4hPa NNE 3.0mph /  4.8km/h 5.0mph /  8km/h 39% 0.00in /  0mm
17:05 87.9 °F /  31.1 °C 62.0 °F /  16.7 °C 29.92in /  1013.1hPa East 1.0mph /  1.6km/h 3.0mph /  4.8km/h 42% 0.00in /  0mm
17:10 87.9 °F /  31.1 °C 60.6 °F /  15.9 °C 29.92in /  1013.1hPa North 3.0mph /  4.8km/h 3.0mph /  4.8km/h 40% 0.00in /  0mm
17:15 88.0 °F /  31.1 °C 61.4 °F /  16.3 °C 29.92in /  1013.1hPa NE 3.0mph /  4.8km/h 5.0mph /  8km/h 41% 0.00in /  0mm
17:20 87.9 °F /  31.1 °C 62.0 °F /  16.7 °C 29.92in /  1013.1hPa NNW 2.0mph /  3.2km/h 4.0mph /  6.4km/h 42% 0.00in /  0mm
17:25 87.6 °F /  30.9 °C 60.3 °F /  15.7 °C 29.92in /  1013.1hPa North 2.0mph /  3.2km/h 5.0mph /  8km/h 40% 0.00in /  0mm
17:30 88.1 °F /  31.2 °C 60.0 °F /  15.6 °C 29.92in /  1013.1hPa NNE 3.0mph /  4.8km/h 5.0mph /  8km/h 39% 0.00in /  0mm
17:35 87.9 °F /  31.1 °C 58.4 °F /  14.7 °C 29.92in /  1013.1hPa North 1.0mph /  1.6km/h 3.0mph /  4.8km/h 37% 0.00in /  0mm
17:40 88.4 °F /  31.3 °C 61.7 °F /  16.5 °C 29.92in /  1013.1hPa North 1.0mph /  1.6km/h 1.0mph /  1.6km/h 41% 0.00in /  0mm
17:45 89.0 °F /  31.7 °C 63.0 °F /  17.2 °C 29.92in /  1013.1hPa Calm   1.0mph /  1.6km/h 42% 0.00in /  0mm
17:50 89.2 °F /  31.8 °C 61.0 °F /  16.1 °C 29.92in /  1013.1hPa NNE 1.0mph /  1.6km/h 2.0mph /  3.2km/h 39% 0.00in /  0mm
17:55 88.9 °F /  31.6 °C 61.5 °F /  16.4 °C 29.93in /  1013.4hPa ENE 3.0mph /  4.8km/h 3.0mph /  4.8km/h 40% 0.00in /  0mm
18:00 88.4 °F /  31.3 °C 59.6 °F /  15.3 °C 29.93in /  1013.4hPa SE 2.0mph /  3.2km/h 3.0mph /  4.8km/h 38% 0.00in /  0mm
18:05 88.8 °F /  31.6 °C 60.7 °F /  15.9 °C 29.93in /  1013.4hPa SSE 4.0mph /  6.4km/h 4.0mph /  6.4km/h 39% 0.00in /  0mm
18:10 88.9 °F /  31.6 °C 63.5 °F /  17.5 °C 29.93in /  1013.4hPa Calm   2.0mph /  3.2km/h 43% 0.00in /  0mm
18:15 89.2 °F /  31.8 °C 58.8 °F /  14.9 °C 29.93in /  1013.4hPa Calm   1.0mph /  1.6km/h 36% 0.00in /  0mm
18:20 89.7 °F /  32.1 °C 62.2 °F /  16.8 °C 29.92in /  1013.1hPa WNW 2.0mph /  3.2km/h 3.0mph /  4.8km/h 40% 0.00in /  0mm
18:26 88.7 °F /  31.5 °C 61.3 °F /  16.3 °C 29.93in /  1013.4hPa WNW 3.0mph /  4.8km/h 4.0mph /  6.4km/h 40% 0.00in /  0mm
18:31 88.4 °F /  31.3 °C 61.7 °F /  16.5 °C 29.93in /  1013.4hPa NNE 2.0mph /  3.2km/h 3.0mph /  4.8km/h 41% 0.00in /  0mm
18:36 88.4 °F /  31.3 °C 62.4 °F /  16.9 °C 29.93in /  1013.4hPa North 1.0mph /  1.6km/h 3.0mph /  4.8km/h 42% 0.00in /  0mm
18:41 88.3 °F /  31.3 °C 62.3 °F /  16.8 °C 29.93in /  1013.4hPa NNW 1.0mph /  1.6km/h 3.0mph /  4.8km/h 42% 0.00in /  0mm
18:46 88.2 °F /  31.2 °C 61.5 °F /  16.4 °C 29.93in /  1013.4hPa NE 1.0mph /  1.6km/h 4.0mph /  6.4km/h 41% 0.00in /  0mm
18:51 88.3 °F /  31.3 °C 62.3 °F /  16.8 °C 29.93in /  1013.4hPa Calm     42% 0.00in /  0mm
18:56 88.5 °F /  31.4 °C 63.2 °F /  17.3 °C 29.93in /  1013.4hPa WNW 1.0mph /  1.6km/h 3.0mph /  4.8km/h 43% 0.00in /  0mm
19:01 88.8 °F /  31.6 °C 62.8 °F /  17.1 °C 29.93in /  1013.4hPa Calm   1.0mph /  1.6km/h 42% 0.00in /  0mm
19:06 90.4 °F /  32.4 °C 65.5 °F /  18.6 °C 29.93in /  1013.4hPa Calm     44% 0.00in /  0mm
19:11 91.3 °F /  32.9 °C 65.0 °F /  18.3 °C 29.93in /  1013.4hPa Calm     42% 0.00in /  0mm
19:16 90.2 °F /  32.3 °C 62.6 °F /  17 °C 29.93in /  1013.4hPa WNW 1.0mph /  1.6km/h 2.0mph /  3.2km/h 40% 0.00in /  0mm
19:21 89.6 °F /  32 °C 63.5 °F /  17.5 °C 29.93in /  1013.4hPa WNW 1.0mph /  1.6km/h 1.0mph /  1.6km/h 42% 0.00in /  0mm
19:26 89.0 °F /  31.7 °C 63.6 °F /  17.6 °C 29.93in /  1013.4hPa Calm   2.0mph /  3.2km/h 43% 0.00in /  0mm
19:31 88.6 °F /  31.4 °C 63.9 °F /  17.7 °C 29.93in /  1013.4hPa NNW 1.0mph /  1.6km/h 2.0mph /  3.2km/h 44% 0.00in /  0mm
19:36 88.1 °F /  31.2 °C 64.1 °F /  17.8 °C 29.94in /  1013.8hPa NNW 1.0mph /  1.6km/h 3.0mph /  4.8km/h 45% 0.00in /  0mm
19:41 87.8 °F /  31 °C 65.7 °F /  18.7 °C 29.94in /  1013.8hPa Calm   2.0mph /  3.2km/h 48% 0.00in /  0mm
19:46 87.7 °F /  30.9 °C 64.4 °F /  18 °C 29.94in /  1013.8hPa NE 1.0mph /  1.6km/h 1.0mph /  1.6km/h 46% 0.00in /  0mm
19:51 87.5 °F /  30.8 °C 63.6 °F /  17.6 °C 29.94in /  1013.8hPa NE 1.0mph /  1.6km/h 2.0mph /  3.2km/h 45% 0.00in /  0mm
19:56 87.6 °F /  30.9 °C 67.8 °F /  19.9 °C 29.94in /  1013.8hPa North 2.0mph /  3.2km/h 2.0mph /  3.2km/h 52% 0.00in /  0mm
20:01 87.3 °F /  30.7 °C 66.4 °F /  19.1 °C 29.94in /  1013.8hPa Calm   1.0mph /  1.6km/h 50% 0.00in /  0mm
20:06 87.5 °F /  30.8 °C 67.7 °F /  19.8 °C 29.94in /  1013.8hPa Calm     52% 0.00in /  0mm
20:11 87.5 °F /  30.8 °C 66.6 °F /  19.2 °C 29.94in /  1013.8hPa Calm     50% 0.00in /  0mm
20:16 86.9 °F /  30.5 °C 68.3 °F /  20.2 °C 29.94in /  1013.8hPa North 1.0mph /  1.6km/h 2.0mph /  3.2km/h 54% 0.00in /  0mm
20:21 85.8 °F /  29.9 °C 68.8 °F /  20.4 °C 29.94in /  1013.8hPa Calm   1.0mph /  1.6km/h 57% 0.00in /  0mm
20:26 84.9 °F /  29.4 °C 69.0 °F /  20.6 °C 29.94in /  1013.8hPa Calm   1.0mph /  1.6km/h 59% 0.00in /  0mm
20:31 83.7 °F /  28.7 °C 68.8 °F /  20.4 °C 29.94in /  1013.8hPa Calm   2.0mph /  3.2km/h 61% 0.00in /  0mm
20:36 82.6 °F /  28.1 °C 69.2 °F /  20.7 °C 29.94in /  1013.8hPa Calm     64% 0.00in /  0mm
20:41 81.9 °F /  27.7 °C 69.4 °F /  20.8 °C 29.94in /  1013.8hPa Calm     66% 0.00in /  0mm
20:46 81.0 °F /  27.2 °C 68.6 °F /  20.3 °C 29.94in /  1013.8hPa Calm     66% 0.00in /  0mm
20:51 79.9 °F /  26.6 °C 68.0 °F /  20 °C 29.94in /  1013.8hPa NW 2.0mph /  3.2km/h 3.0mph /  4.8km/h 67% 0.00in /  0mm
20:56 78.7 °F /  25.9 °C 68.9 °F /  20.5 °C 29.94in /  1013.8hPa NNW 1.0mph /  1.6km/h 2.0mph /  3.2km/h 72% 0.00in /  0mm
21:01 78.2 °F /  25.7 °C 68.4 °F /  20.2 °C 29.94in /  1013.8hPa NNW 1.0mph /  1.6km/h 1.0mph /  1.6km/h 72% 0.00in /  0mm
21:06 78.1 °F /  25.6 °C 68.3 °F /  20.2 °C 29.94in /  1013.8hPa Calm   1.0mph /  1.6km/h 72% 0.00in /  0mm
21:11 78.0 °F /  25.6 °C 68.7 °F /  20.4 °C 29.94in /  1013.8hPa Calm     73% 0.00in /  0mm
21:16 77.6 °F /  25.3 °C 69.1 °F /  20.6 °C 29.94in /  1013.8hPa Calm     75% 0.00in /  0mm
21:21 76.9 °F /  24.9 °C 68.4 °F /  20.2 °C 29.95in /  1014.1hPa Calm   1.0mph /  1.6km/h 75% 0.00in /  0mm
21:26 77.0 °F /  25 °C 68.5 °F /  20.3 °C 29.95in /  1014.1hPa Calm   1.0mph /  1.6km/h 75% 0.00in /  0mm
21:31 76.8 °F /  24.9 °C 68.7 °F /  20.4 °C 29.95in /  1014.1hPa Calm     76% 0.00in /  0mm
21:36 76.1 °F /  24.5 °C 68.4 °F /  20.2 °C 29.95in /  1014.1hPa Calm   1.0mph /  1.6km/h 77% 0.00in /  0mm
21:42 75.7 °F /  24.3 °C 67.2 °F /  19.6 °C 29.95in /  1014.1hPa Calm     75% 0.00in /  0mm
21:47 75.9 °F /  24.4 °C 67.0 °F /  19.4 °C 29.95in /  1014.1hPa Calm     74% 0.00in /  0mm
21:52 75.5 °F /  24.2 °C 66.6 °F /  19.2 °C 29.95in /  1014.1hPa Calm     74% 0.00in /  0mm
21:57 75.0 °F /  23.9 °C 66.2 °F /  19 °C 29.95in /  1014.1hPa Calm     74% 0.00in /  0mm
22:02 74.9 °F /  23.8 °C 66.1 °F /  18.9 °C 29.95in /  1014.1hPa NNW 1.0mph /  1.6km/h 1.0mph /  1.6km/h 74% 0.00in /  0mm
22:07 75.3 °F /  24.1 °C 66.4 °F /  19.1 °C 29.95in /  1014.1hPa Calm   1.0mph /  1.6km/h 74% 0.00in /  0mm
22:12 74.9 °F /  23.8 °C 66.4 °F /  19.1 °C 29.96in /  1014.4hPa Calm     75% 0.00in /  0mm
22:17 74.3 °F /  23.5 °C 66.6 °F /  19.2 °C 29.95in /  1014.1hPa Calm     77% 0.00in /  0mm
22:22 73.9 °F /  23.3 °C 66.2 °F /  19 °C 29.95in /  1014.1hPa Calm     77% 0.00in /  0mm
22:27 73.7 °F /  23.2 °C 65.7 °F /  18.7 °C 29.95in /  1014.1hPa Calm     76% 0.00in /  0mm
22:32 73.7 °F /  23.2 °C 66.4 °F /  19.1 °C 29.95in /  1014.1hPa Calm     78% 0.00in /  0mm
22:37 73.4 °F /  23 °C 66.5 °F /  19.2 °C 29.96in /  1014.4hPa Calm   1.0mph /  1.6km/h 79% 0.00in /  0mm
22:42 73.3 °F /  22.9 °C 66.0 °F /  18.9 °C 29.96in /  1014.4hPa Calm     78% 0.00in /  0mm
22:47 73.9 °F /  23.3 °C 65.9 °F /  18.8 °C 29.96in /  1014.4hPa Calm   1.0mph /  1.6km/h 76% 0.00in /  0mm
22:52 74.7 °F /  23.7 °C 65.9 °F /  18.8 °C 29.96in /  1014.4hPa NNW 1.0mph /  1.6km/h 1.0mph /  1.6km/h 74% 0.00in /  0mm
22:57 75.1 °F /  23.9 °C 65.9 °F /  18.8 °C 29.97in /  1014.8hPa Calm   1.0mph /  1.6km/h 73% 0.00in /  0mm
23:02 75.0 °F /  23.9 °C 66.2 °F /  19 °C 29.97in /  1014.8hPa North 1.0mph /  1.6km/h 1.0mph /  1.6km/h 74% 0.00in /  0mm
23:07 74.6 °F /  23.7 °C 66.2 °F /  19 °C 29.97in /  1014.8hPa ESE 4.0mph /  6.4km/h 4.0mph /  6.4km/h 75% 0.00in /  0mm
23:12 74.6 °F /  23.7 °C 66.2 °F /  19 °C 29.97in /  1014.8hPa East 7.0mph /  11.3km/h 7.0mph /  11.3km/h 75% 0.00in /  0mm
23:17 75.0 °F /  23.9 °C 66.2 °F /  19 °C 29.97in /  1014.8hPa SE 2.0mph /  3.2km/h 9.0mph /  14.5km/h 74% 0.00in /  0mm
23:22 75.3 °F /  24.1 °C 66.1 °F /  18.9 °C 29.97in /  1014.8hPa ESE 1.0mph /  1.6km/h 4.0mph /  6.4km/h 73% 0.00in /  0mm
23:27 75.3 °F /  24.1 °C 66.1 °F /  18.9 °C 29.97in /  1014.8hPa ENE 2.0mph /  3.2km/h 3.0mph /  4.8km/h 73% 0.00in /  0mm
23:32 75.4 °F /  24.1 °C 66.5 °F /  19.2 °C 29.97in /  1014.8hPa ENE 1.0mph /  1.6km/h 3.0mph /  4.8km/h 74% 0.00in /  0mm
23:37 75.4 °F /  24.1 °C 66.9 °F /  19.4 °C 29.97in /  1014.8hPa Calm   2.0mph /  3.2km/h 75% 0.00in /  0mm
23:42 75.2 °F /  24 °C 67.1 °F /  19.5 °C 29.97in /  1014.8hPa ESE 2.0mph /  3.2km/h 2.0mph /  3.2km/h 76% 0.00in /  0mm
23:47 75.1 °F /  23.9 °C 67.8 °F /  19.9 °C 29.97in /  1014.8hPa ESE 1.0mph /  1.6km/h 3.0mph /  4.8km/h 78% 0.00in /  0mm
23:52 74.8 °F /  23.8 °C 67.9 °F /  19.9 °C 29.97in /  1014.8hPa ESE 2.0mph /  3.2km/h 3.0mph /  4.8km/h 79% 0.00in /  0mm
23:57 74.6 °F /  23.7 °C 68.0 °F /  20 °C 29.97in /  1014.8hPa ESE 1.0mph /  1.6km/h 3.0mph /  4.8km/h 80% 0.00in /  0mm
Compliments of Weather Underground